TimeAKDT,TemperatureF,Dew PointF,Humidity,Sea Level PressureIn,VisibilityMPH,Wind Direction,Wind SpeedMPH,Gust SpeedMPH,PrecipitationIn,Events,Conditions,WindDirDegrees,DateUTC
12:53 AM,44.1,32.0,63,30.28,-9999.0,Calm,Calm,-,N/A,,Clear,0,2013-05-10 08:53:00
1:53 AM,43.0,32.0,65,30.27,-9999.0,Calm,Calm,-,N/A,,Clear,0,2013-05-10 09:53:00
2:53 AM,41.0,32.0,70,30.26,10.0,Calm,Calm,-,N/A,,Clear,0,2013-05-10 10:53:00
3:53 AM,39.9,32.0,73,30.25,10.0,NNE,3.5,-,N/A,,Clear,30,2013-05-10 11:53:00
4:53 AM,39.9,32.0,73,30.24,10.0,NE,3.5,-,N/A,,Clear,40,2013-05-10 12:53:00
5:53 AM,39.9,32.0,73,30.22,10.0,NNE,3.5,-,N/A,,Clear,30,2013-05-10 13:53:00
6:53 AM,39.9,33.1,77,30.21,10.0,NNE,3.5,-,N/A,,Clear,30,2013-05-10 14:53:00
7:53 AM,46.9,35.1,63,30.19,10.0,NE,3.5,-,N/A,,Clear,40,2013-05-10 15:53:00
8:53 AM,48.9,37.9,66,30.17,10.0,South,3.5,-,N/A,,Clear,190,2013-05-10 16:53:00
9:53 AM,55.9,36.0,47,30.15,-9999.0,SSW,3.5,-,N/A,,Clear,200,2013-05-10 17:53:00
10:53 AM,50.0,37.0,61,30.14,-9999.0,SW,8.1,-,N/A,,Clear,220,2013-05-10 18:53:00
11:53 AM,51.1,35.1,54,30.12,-9999.0,WSW,6.9,-,N/A,,Clear,250,2013-05-10 19:53:00
12:53 PM,51.1,37.0,59,30.11,-9999.0,SW,10.4,-,N/A,,Clear,230,2013-05-10 20:53:00
1:53 PM,53.1,37.0,55,30.10,-9999.0,WSW,11.5,-,N/A,,Clear,240,2013-05-10 21:53:00
2:53 PM,55.9,36.0,47,30.08,-9999.0,WSW,13.8,-,N/A,,Clear,240,2013-05-10 22:53:00
3:53 PM,63.0,34.0,34,30.06,-9999.0,SSW,16.1,-,N/A,,Clear,210,2013-05-10 23:53:00
4:53 PM,62.1,33.1,34,30.06,-9999.0,SSW,12.7,19.6,N/A,,Clear,210,2013-05-11 00:53:00
5:53 PM,63.0,30.9,30,30.04,-9999.0,SSW,12.7,-,N/A,,Clear,210,2013-05-11 01:53:00
6:53 PM,57.0,34.0,42,30.03,-9999.0,WSW,11.5,-,N/A,,Clear,240,2013-05-11 02:53:00
7:53 PM,57.0,34.0,42,30.03,-9999.0,Calm,Calm,-,N/A,,Clear,0,2013-05-11 03:53:00
8:53 PM,52.0,36.0,54,30.03,-9999.0,Calm,Calm,-,N/A,,Clear,0,2013-05-11 04:53:00
9:53 PM,51.1,34.0,52,30.04,-9999.0,Calm,Calm,-,N/A,,Clear,0,2013-05-11 05:53:00
10:53 PM,48.9,34.0,56,30.03,-9999.0,Calm,Calm,-,N/A,,Scattered Clouds,0,2013-05-11 06:53:00
11:53 PM,46.9,34.0,61,30.03,-9999.0,Calm,Calm,-,N/A,,Clear,0,2013-05-11 07:53:00